createdAt,value
2022-11-16T00:01:25.428Z,31.05
2022-11-16T00:03:53.577Z,30.48
2022-11-16T00:06:20.727Z,31.52
2022-11-16T00:09:10.003Z,31.42
2022-11-16T00:11:37.405Z,32.20
2022-11-16T00:14:04.813Z,31.20
2022-11-16T00:16:31.486Z,29.63
2022-11-16T00:19:00.241Z,33.28
2022-11-16T00:21:27.789Z,34.25
2022-11-16T00:23:54.530Z,36.00
2022-11-16T00:26:21.605Z,37.78
2022-11-16T00:28:48.498Z,34.92
2022-11-16T00:31:15.314Z,32.10
2022-11-16T00:33:42.197Z,36.05
2022-11-16T00:36:11.211Z,36.65
2022-11-16T00:38:38.067Z,36.15
2022-11-16T00:41:05.537Z,36.17
2022-11-16T00:43:32.115Z,34.20
2022-11-16T00:45:58.805Z,33.47
2022-11-16T00:48:25.796Z,35.88
2022-11-16T00:50:52.327Z,38.13
2022-11-16T00:53:20.440Z,34.85
2022-11-16T00:55:48.196Z,33.50
2022-11-16T00:58:16.711Z,35.92
2022-11-16T01:00:45.673Z,35.78
2022-11-16T01:03:12.314Z,33.45
2022-11-16T01:05:38.979Z,37.28
2022-11-16T01:08:07.143Z,34.30
2022-11-16T01:10:33.946Z,34.78
2022-11-16T01:13:01.864Z,33.53
2022-11-16T01:15:28.305Z,38.17
2022-11-16T01:17:56.395Z,35.45
2022-11-16T01:20:26.317Z,35.63
2022-11-16T01:22:53.851Z,38.13
2022-11-16T01:25:20.778Z,35.83
2022-11-16T01:27:47.321Z,35.53
2022-11-16T01:30:21.972Z,38.80
2022-11-16T01:33:02.200Z,38.45
2022-11-16T01:35:29.159Z,37.55
2022-11-16T01:37:55.540Z,37.90
2022-11-16T01:40:22.491Z,38.80
2022-11-16T01:42:48.971Z,38.22
2022-11-16T01:45:23.315Z,38.05
2022-11-16T01:47:54.372Z,37.10
2022-11-16T01:50:24.722Z,35.88
2022-11-16T01:53:02.237Z,38.65
2022-11-16T01:55:36.995Z,37.78
2022-11-16T01:58:22.977Z,39.28
2022-11-16T02:00:55.225Z,39.33
2022-11-16T02:03:30.134Z,40.35
2022-11-16T02:06:08.085Z,37.58
2022-11-16T02:09:12.827Z,40.72
2022-11-16T02:12:05.491Z,39.55
2022-11-16T02:15:06.871Z,41.15
2022-11-16T02:17:41.167Z,38.20
2022-11-16T02:20:34.790Z,41.70
2022-11-16T02:23:11.217Z,39.58
2022-11-16T02:25:59.865Z,45.42
2022-11-16T02:28:48.485Z,42.88
2022-11-16T02:31:29.856Z,41.60
2022-11-16T02:33:59.082Z,46.03
2022-11-16T02:36:26.073Z,46.08
2022-11-16T02:39:04.880Z,47.85
2022-11-16T02:41:37.513Z,54.00
2022-11-16T02:44:11.913Z,51.38
2022-11-16T02:46:40.319Z,47.38
2022-11-16T02:49:13.314Z,51.45
2022-11-16T02:51:41.283Z,52.00
2022-11-16T02:54:19.255Z,51.08
2022-11-16T02:57:02.145Z,54.05
2022-11-16T02:59:36.446Z,50.15
2022-11-16T03:02:22.522Z,51.92
2022-11-16T03:04:54.803Z,50.50
2022-11-16T03:07:27.344Z,57.35
2022-11-16T03:09:56.547Z,51.45
2022-11-16T03:12:28.335Z,58.65
2022-11-16T03:14:59.188Z,54.72
2022-11-16T03:17:31.181Z,54.53
2022-11-16T03:20:09.505Z,54.35
2022-11-16T03:22:47.443Z,53.92
2022-11-16T03:25:17.899Z,51.30
2022-11-16T03:27:55.047Z,56.03
2022-11-16T03:30:25.837Z,55.35
2022-11-16T03:33:22.610Z,54.65
2022-11-16T03:36:03.739Z,52.80
2022-11-16T03:38:34.770Z,52.00
2022-11-16T03:41:07.245Z,51.97
2022-11-16T03:43:34.930Z,48.47
2022-11-16T03:46:02.853Z,49.53
2022-11-16T03:48:35.936Z,49.90
2022-11-16T03:51:09.233Z,49.00
2022-11-16T03:53:36.118Z,52.55
2022-11-16T03:56:03.229Z,52.38
2022-11-16T03:58:29.799Z,49.70
2022-11-16T04:00:57.078Z,49.45
2022-11-16T04:03:23.860Z,50.08
2022-11-16T04:06:29.154Z,47.10
2022-11-16T04:09:15.160Z,51.53
2022-11-16T04:12:00.043Z,46.38
2022-11-16T04:14:47.373Z,44.45
2022-11-16T04:17:37.526Z,45.85
2022-11-16T04:20:23.989Z,48.72
2022-11-16T04:23:24.945Z,49.17
2022-11-16T04:25:52.637Z,46.50
2022-11-16T04:28:26.974Z,51.33
2022-11-16T04:31:20.458Z,47.88
2022-11-16T04:34:24.999Z,47.28
2022-11-16T04:37:13.411Z,44.03
2022-11-16T04:39:40.607Z,46.08
2022-11-16T04:42:17.106Z,44.35
2022-11-16T04:45:04.451Z,42.42
2022-11-16T04:47:40.447Z,43.13
2022-11-16T04:50:07.315Z,42.72
2022-11-16T04:52:33.763Z,42.28
2022-11-16T04:55:00.260Z,42.42
2022-11-16T04:57:28.138Z,45.17
2022-11-16T04:59:55.366Z,42.97
2022-11-16T05:02:21.730Z,47.05
2022-11-16T05:04:52.487Z,45.55
2022-11-16T05:07:20.104Z,40.17
2022-11-16T05:09:48.490Z,41.05
2022-11-16T05:12:24.343Z,42.72
2022-11-16T05:14:55.299Z,43.80
2022-11-16T05:17:25.352Z,43.53
2022-11-16T05:20:10.921Z,40.83
2022-11-16T05:22:45.015Z,41.97
2022-11-16T05:25:11.644Z,41.60
2022-11-16T05:27:38.206Z,39.90
2022-11-16T05:30:06.243Z,43.45
2022-11-16T05:32:33.449Z,41.10
2022-11-16T05:35:00.654Z,40.90
2022-11-16T05:37:27.235Z,43.17
2022-11-16T05:39:54.878Z,40.13
2022-11-16T05:42:25.400Z,44.88
2022-11-16T05:44:52.323Z,44.38
2022-11-16T05:47:18.752Z,42.55
2022-11-16T05:49:45.200Z,45.47
2022-11-16T05:52:13.067Z,45.83
2022-11-16T05:54:44.806Z,41.50
2022-11-16T05:57:11.373Z,43.75
2022-11-16T05:59:38.504Z,42.35
2022-11-16T06:02:05.506Z,42.40
2022-11-16T06:04:33.625Z,44.25
2022-11-16T06:07:00.473Z,46.60
2022-11-16T06:09:31.007Z,43.55
2022-11-16T06:12:04.156Z,44.50
2022-11-16T06:14:30.830Z,44.88
2022-11-16T06:16:57.822Z,48.80
2022-11-16T06:19:28.223Z,41.97
2022-11-16T06:21:57.904Z,42.85
2022-11-16T06:24:26.157Z,43.03
2022-11-16T06:26:52.660Z,45.30
2022-11-16T06:29:19.092Z,41.13
2022-11-16T06:31:45.470Z,44.47
2022-11-16T06:34:12.749Z,42.83
2022-11-16T06:36:39.183Z,38.15
2022-11-16T06:39:05.690Z,38.00
2022-11-16T06:41:41.075Z,46.90
2022-11-16T06:44:09.085Z,37.70
2022-11-16T06:46:38.442Z,37.33
2022-11-16T06:49:04.879Z,39.08
2022-11-16T06:51:33.135Z,41.65
2022-11-16T06:53:59.676Z,40.38
2022-11-16T06:56:27.029Z,39.97
2022-11-16T06:58:57.445Z,36.63
2022-11-16T07:01:26.525Z,37.15
2022-11-16T07:03:58.570Z,34.30
2022-11-16T07:06:25.960Z,40.28
2022-11-16T07:08:52.397Z,38.15
2022-11-16T07:11:23.789Z,41.58
2022-11-16T07:13:51.031Z,39.63
2022-11-16T07:16:17.511Z,38.47
2022-11-16T07:18:50.625Z,38.30
2022-11-16T07:21:17.833Z,38.67
2022-11-16T07:23:45.302Z,36.30
2022-11-16T07:26:16.463Z,37.20
2022-11-16T07:29:01.116Z,38.28
2022-11-16T07:31:28.301Z,41.17
2022-11-16T07:34:24.368Z,36.38
2022-11-16T07:37:01.733Z,39.38
2022-11-16T07:39:28.142Z,40.28
2022-11-16T07:41:55.423Z,38.78
2022-11-16T07:44:28.906Z,37.38
2022-11-16T07:47:05.823Z,39.28
2022-11-16T07:49:33.554Z,43.35
2022-11-16T07:52:08.489Z,41.33
2022-11-16T07:55:05.633Z,39.47
2022-11-16T07:57:32.937Z,41.55
2022-11-16T08:00:05.004Z,43.58
2022-11-16T08:02:39.916Z,41.40
2022-11-16T08:05:09.079Z,39.30
2022-11-16T08:07:38.292Z,45.75
2022-11-16T08:10:05.909Z,42.90
2022-11-16T08:12:32.620Z,43.92
2022-11-16T08:14:59.059Z,39.65
2022-11-16T08:17:25.426Z,40.13
2022-11-16T08:19:53.642Z,44.15
2022-11-16T08:22:20.856Z,46.70
2022-11-16T08:24:47.726Z,42.92
2022-11-16T08:27:16.895Z,47.42
2022-11-16T08:29:45.433Z,44.90
2022-11-16T08:32:12.966Z,41.28
2022-11-16T08:34:39.538Z,44.30
2022-11-16T08:37:06.050Z,44.88
2022-11-16T08:39:38.534Z,42.35
2022-11-16T08:42:05.378Z,43.45
2022-11-16T08:44:31.950Z,43.10
2022-11-16T08:47:02.265Z,48.35
2022-11-16T08:49:35.544Z,45.22
2022-11-16T08:52:02.061Z,39.58
2022-11-16T08:54:30.275Z,38.40
2022-11-16T08:56:57.057Z,42.97
2022-11-16T08:59:23.614Z,39.92
2022-11-16T09:01:52.364Z,42.15
2022-11-16T09:04:18.865Z,45.72
2022-11-16T09:06:45.991Z,41.15
2022-11-16T09:09:12.373Z,48.05
2022-11-16T09:11:39.070Z,40.15
2022-11-16T09:14:05.491Z,47.85
2022-11-16T09:16:31.978Z,42.63
2022-11-16T09:18:58.342Z,47.58
2022-11-16T09:21:27.464Z,48.50
2022-11-16T09:23:55.423Z,49.50
2022-11-16T09:26:23.207Z,49.10
2022-11-16T09:28:58.065Z,46.10
2022-11-16T09:31:27.408Z,52.78
2022-11-16T09:33:58.068Z,49.78
2022-11-16T09:36:26.125Z,48.30
2022-11-16T09:41:55.823Z,54.28
2022-11-16T09:44:40.766Z,57.78
2022-11-16T09:47:18.349Z,51.75
2022-11-16T09:49:52.215Z,52.22
2022-11-16T09:52:41.108Z,55.17
2022-11-16T09:55:26.218Z,53.15
2022-11-16T09:57:59.890Z,52.25
2022-11-16T10:00:27.925Z,55.78
2022-11-16T10:03:09.542Z,50.13
2022-11-16T10:05:43.139Z,57.17
2022-11-16T10:08:15.563Z,53.65
2022-11-16T10:10:55.868Z,53.80
2022-11-16T10:13:42.711Z,56.70
2022-11-16T10:16:34.811Z,51.05
2022-11-16T10:19:36.205Z,55.90
2022-11-16T10:22:17.871Z,57.47
2022-11-16T10:24:58.565Z,58.70
2022-11-16T10:27:41.476Z,58.97
2022-11-16T10:30:19.633Z,61.80
2022-11-16T10:32:59.310Z,59.28
2022-11-16T10:35:31.974Z,58.50
2022-11-16T10:38:00.266Z,59.92
2022-11-16T10:40:36.775Z,61.13
2022-11-16T10:43:14.337Z,56.70
2022-11-16T10:46:12.583Z,64.82
2022-11-16T10:48:51.357Z,64.22
2022-11-16T10:51:18.011Z,58.88
2022-11-16T10:53:44.544Z,67.97
2022-11-16T10:56:20.255Z,65.03
2022-11-16T10:58:55.736Z,66.10
2022-11-16T11:01:39.058Z,59.78
2022-11-16T11:04:26.054Z,65.13
2022-11-16T11:06:57.576Z,60.50
2022-11-16T11:09:35.930Z,66.85
2022-11-16T11:12:35.162Z,63.97
2022-11-16T11:15:12.656Z,64.28
2022-11-16T11:17:45.133Z,62.45
2022-11-16T11:20:14.810Z,60.42
2022-11-16T11:22:47.140Z,65.47
2022-11-16T11:25:21.838Z,61.38
2022-11-16T11:27:49.478Z,64.88
2022-11-16T11:30:21.401Z,63.17
2022-11-16T11:32:48.880Z,62.08
2022-11-16T11:35:30.261Z,68.78
2022-11-16T11:38:03.324Z,58.75
2022-11-16T11:40:32.757Z,67.20
2022-11-16T11:43:05.468Z,67.32
2022-11-16T11:45:43.139Z,67.40
2022-11-16T11:48:21.952Z,64.15
2022-11-16T11:50:54.949Z,65.40
2022-11-16T11:53:36.086Z,65.72
2022-11-16T11:56:02.939Z,67.10
2022-11-16T11:58:32.779Z,68.45
2022-11-16T12:01:03.354Z,66.57
2022-11-16T12:03:47.042Z,70.78
2022-11-16T12:06:22.429Z,74.03
2022-11-16T12:08:58.250Z,65.78
2022-11-16T12:11:52.932Z,74.15
2022-11-16T12:14:46.136Z,66.15
2022-11-16T12:17:24.216Z,69.57
2022-11-16T12:20:00.886Z,76.25
2022-11-16T12:22:59.721Z,72.35
2022-11-16T12:25:44.461Z,75.15
2022-11-16T12:28:19.878Z,71.72
2022-11-16T12:31:21.781Z,66.65
2022-11-16T12:34:26.836Z,70.00
2022-11-16T12:37:34.685Z,75.63
2022-11-16T12:40:21.663Z,72.90
2022-11-16T12:43:03.398Z,75.18
2022-11-16T12:45:38.211Z,69.75
2022-11-16T12:48:23.914Z,72.55
2022-11-16T12:50:55.145Z,71.85
2022-11-16T12:53:52.623Z,72.45
2022-11-16T12:56:48.702Z,73.32
2022-11-16T12:59:27.507Z,72.38
2022-11-16T13:02:31.693Z,68.90
2022-11-16T13:05:23.351Z,69.47
2022-11-16T13:07:57.436Z,73.82
2022-11-16T13:10:35.130Z,68.32
2022-11-16T13:13:30.114Z,71.82
2022-11-16T13:15:58.626Z,78.95
2022-11-16T13:18:27.305Z,70.85
2022-11-16T13:21:11.229Z,67.53
2022-11-16T13:24:07.992Z,77.53
2022-11-16T13:26:54.605Z,64.88
2022-11-16T13:29:39.623Z,73.72
2022-11-16T13:32:18.502Z,67.18
2022-11-16T13:34:45.969Z,69.85
2022-11-16T13:37:37.818Z,70.28
2022-11-16T13:40:04.882Z,61.38
2022-11-16T13:42:34.200Z,67.70
2022-11-16T13:45:08.583Z,61.33
2022-11-16T13:47:37.081Z,62.58
2022-11-16T13:50:06.961Z,66.50
2022-11-16T13:55:35.550Z,69.13
2022-11-16T13:58:05.375Z,57.83
2022-11-16T14:00:38.645Z,56.95
2022-11-16T14:03:38.380Z,66.18
2022-11-16T14:06:25.595Z,60.47
2022-11-16T14:08:54.485Z,57.00
2022-11-16T14:11:38.763Z,54.40
2022-11-16T14:14:11.881Z,54.90
2022-11-16T14:16:51.104Z,57.35
2022-11-16T14:19:49.167Z,54.90
2022-11-16T14:22:51.021Z,55.97
2022-11-16T14:25:31.806Z,55.90
2022-11-16T14:28:26.786Z,55.47
2022-11-16T14:31:09.706Z,55.88
2022-11-16T14:33:37.767Z,56.35
2022-11-16T14:36:09.230Z,60.75
2022-11-16T14:38:38.641Z,55.92
2022-11-16T14:41:07.233Z,61.10
2022-11-16T14:43:49.567Z,54.03
2022-11-16T14:46:22.203Z,61.60
2022-11-16T14:48:49.447Z,56.58
2022-11-16T14:51:31.668Z,57.53
2022-11-16T14:54:02.499Z,50.90
2022-11-16T14:56:29.039Z,55.70
2022-11-16T14:58:57.818Z,60.08
2022-11-16T15:01:28.246Z,56.58
2022-11-16T15:04:06.062Z,52.20
2022-11-16T15:06:40.569Z,54.13
2022-11-16T15:09:07.108Z,52.45
2022-11-16T15:12:02.409Z,46.30
2022-11-16T15:14:31.831Z,58.42
2022-11-16T15:16:59.908Z,54.65
2022-11-16T15:19:30.283Z,51.72
2022-11-16T15:21:59.015Z,50.40
2022-11-16T15:24:33.814Z,51.47
2022-11-16T15:27:26.902Z,47.03
2022-11-16T15:29:53.363Z,51.30
2022-11-16T15:32:19.752Z,45.63
2022-11-16T15:34:50.399Z,46.85
2022-11-16T15:37:27.283Z,47.50
2022-11-16T15:39:54.222Z,45.00
2022-11-16T15:42:22.612Z,41.97
2022-11-16T15:44:49.895Z,38.70
2022-11-16T15:47:16.823Z,40.05
2022-11-16T15:49:46.450Z,42.13
2022-11-16T15:52:12.900Z,41.05
2022-11-16T15:54:57.771Z,39.38
2022-11-16T15:57:24.909Z,38.20
2022-11-16T15:59:56.434Z,36.53
2022-11-16T16:02:27.458Z,33.85
2022-11-16T16:04:53.899Z,29.77
2022-11-16T16:07:40.797Z,30.55
2022-11-16T16:10:27.766Z,31.63
2022-11-16T16:13:00.105Z,31.92
2022-11-16T16:15:29.903Z,30.70
2022-11-16T16:17:57.780Z,29.17
2022-11-16T16:20:27.524Z,28.77
2022-11-16T16:23:05.339Z,26.92
2022-11-16T16:25:33.941Z,28.20
2022-11-16T16:28:00.616Z,27.95
2022-11-16T16:30:29.072Z,26.13
2022-11-16T16:32:55.772Z,27.15
2022-11-16T16:35:24.412Z,27.08
2022-11-16T16:37:56.578Z,25.10
2022-11-16T16:40:22.943Z,23.80
2022-11-16T16:42:49.368Z,24.73
2022-11-16T16:45:20.076Z,21.42
2022-11-16T16:47:46.634Z,19.90
2022-11-16T16:50:13.357Z,20.33
2022-11-16T16:52:39.793Z,19.65
2022-11-16T16:55:06.441Z,24.27
2022-11-16T16:57:32.896Z,25.00
2022-11-16T16:59:59.410Z,21.77
2022-11-16T17:02:26.700Z,25.40
2022-11-16T17:04:53.062Z,19.80
2022-11-16T17:07:19.554Z,21.08
2022-11-16T17:09:46.064Z,22.55
2022-11-16T17:12:12.698Z,21.85
2022-11-16T17:14:39.782Z,18.02
2022-11-16T17:17:06.106Z,24.50
2022-11-16T17:19:32.570Z,23.77
2022-11-16T17:22:00.015Z,19.35
2022-11-16T17:24:26.518Z,16.30
2022-11-16T17:26:53.353Z,22.30
2022-11-16T17:29:19.804Z,19.13
2022-11-16T17:31:47.122Z,16.48
2022-11-16T17:34:14.412Z,15.88
2022-11-16T17:36:41.875Z,22.52
2022-11-16T17:39:08.491Z,15.95
2022-11-16T17:41:34.971Z,16.83
2022-11-16T17:44:01.378Z,18.85
2022-11-16T17:46:28.905Z,15.55
2022-11-16T17:48:55.552Z,18.15
2022-11-16T17:51:24.272Z,15.52
2022-11-16T17:53:50.734Z,17.10
2022-11-16T17:56:20.006Z,15.15
2022-11-16T17:58:46.518Z,15.45
2022-11-16T18:01:13.639Z,15.18
2022-11-16T18:03:40.214Z,14.85
2022-11-16T18:06:09.378Z,12.70
2022-11-16T18:08:36.762Z,14.82
2022-11-16T18:11:13.087Z,12.60
2022-11-16T18:13:39.670Z,13.18
2022-11-16T18:16:09.690Z,12.70
2022-11-16T18:18:36.933Z,11.40
2022-11-16T18:21:03.467Z,11.57
2022-11-16T18:23:29.950Z,14.05
2022-11-16T18:25:56.642Z,13.98
2022-11-16T18:28:23.286Z,12.57
2022-11-16T18:30:49.700Z,14.18
2022-11-16T18:33:16.563Z,14.90
2022-11-16T18:35:43.812Z,12.70
2022-11-16T18:38:13.146Z,16.05
2022-11-16T18:40:42.295Z,16.30
2022-11-16T18:43:12.992Z,13.60
2022-11-16T18:45:39.348Z,19.42
2022-11-16T18:48:05.967Z,13.70
2022-11-16T18:50:32.441Z,12.85
2022-11-16T18:52:58.874Z,17.50
2022-11-16T18:55:25.238Z,14.88
2022-11-16T18:57:51.648Z,18.15
2022-11-16T19:00:19.420Z,15.23
2022-11-16T19:02:45.782Z,14.93
2022-11-16T19:05:12.297Z,15.60
2022-11-16T19:07:38.823Z,15.32
2022-11-16T19:10:05.764Z,17.55
2022-11-16T19:12:32.126Z,14.30
2022-11-16T19:14:58.673Z,16.25
2022-11-16T19:17:25.130Z,19.42
2022-11-16T19:19:51.499Z,16.23
2022-11-16T19:22:18.337Z,16.13
2022-11-16T19:24:44.699Z,18.85
2022-11-16T19:27:12.111Z,15.55
2022-11-16T19:29:38.495Z,18.08
2022-11-16T19:32:05.037Z,18.88
2022-11-16T19:34:33.501Z,17.27
2022-11-16T19:37:00.220Z,18.45
2022-11-16T19:39:26.698Z,17.23
2022-11-16T19:41:53.051Z,18.08
2022-11-16T19:44:20.052Z,19.80
2022-11-16T19:46:46.563Z,17.13
2022-11-16T19:49:19.925Z,17.52
2022-11-16T19:51:46.723Z,16.67
2022-11-16T19:54:14.782Z,17.58
2022-11-16T19:56:42.257Z,21.08
2022-11-16T19:59:09.200Z,18.35
2022-11-16T20:01:35.893Z,19.88
2022-11-16T20:04:03.563Z,16.63
2022-11-16T20:06:35.342Z,16.38
2022-11-16T20:09:08.468Z,13.52
2022-11-16T20:11:37.013Z,13.65
2022-11-16T20:14:05.331Z,12.90
2022-11-16T20:16:38.621Z,13.88
2022-11-16T20:19:07.590Z,18.73
2022-11-16T20:21:36.968Z,14.80
2022-11-16T20:24:06.749Z,13.95
2022-11-16T20:26:35.685Z,14.38
2022-11-16T20:29:02.860Z,13.85
2022-11-16T20:31:31.281Z,11.98
2022-11-16T20:34:03.188Z,11.65
2022-11-16T20:36:31.146Z,11.57
2022-11-16T20:38:58.829Z,16.80
2022-11-16T20:41:33.069Z,16.17
2022-11-16T20:44:01.495Z,10.82
2022-11-16T20:46:29.907Z,10.57
2022-11-16T20:48:59.202Z,11.30
2022-11-16T20:51:26.049Z,10.15
2022-11-16T20:53:52.769Z,11.82
2022-11-16T20:56:20.447Z,10.55
2022-11-16T20:58:48.355Z,11.15
2022-11-16T21:01:20.908Z,13.30
2022-11-16T21:03:47.350Z,11.35
2022-11-16T21:06:15.119Z,9.63
2022-11-16T21:08:41.597Z,8.98
2022-11-16T21:11:19.838Z,7.68
2022-11-16T21:14:06.157Z,9.65
2022-11-16T21:16:33.669Z,11.48
2022-11-16T21:19:00.656Z,9.77
2022-11-16T21:21:27.253Z,9.18
2022-11-16T21:23:55.027Z,12.02
2022-11-16T21:26:24.156Z,8.85
2022-11-16T21:28:51.303Z,8.10
2022-11-16T21:31:25.599Z,8.13
2022-11-16T21:33:53.169Z,7.80
2022-11-16T21:36:24.774Z,8.65
2022-11-16T21:38:51.778Z,9.30
2022-11-16T21:41:19.677Z,9.32
2022-11-16T21:43:46.098Z,9.57
2022-11-16T21:46:14.646Z,8.50
2022-11-16T21:48:41.342Z,9.00
2022-11-16T21:51:08.935Z,10.98
2022-11-16T21:53:36.219Z,9.75
2022-11-16T21:56:04.703Z,10.57
2022-11-16T21:58:31.363Z,8.50
2022-11-16T22:00:59.852Z,6.70
2022-11-16T22:03:30.890Z,8.18
2022-11-16T22:06:21.467Z,7.03
2022-11-16T22:08:48.204Z,6.95
2022-11-16T22:11:15.520Z,8.02
2022-11-16T22:13:42.414Z,7.38
2022-11-16T22:16:11.459Z,6.63
2022-11-16T22:18:38.233Z,6.63
2022-11-16T22:21:04.886Z,7.20
2022-11-16T22:23:31.802Z,6.13
2022-11-16T22:26:03.831Z,6.70
2022-11-16T22:28:31.775Z,6.15
2022-11-16T22:31:06.784Z,5.43
2022-11-16T22:33:35.008Z,4.95
2022-11-16T22:36:01.989Z,6.07
2022-11-16T22:38:28.646Z,4.97
2022-11-16T22:40:57.035Z,5.20
2022-11-16T22:43:28.620Z,4.72
2022-11-16T22:45:58.867Z,5.72
2022-11-16T22:48:36.513Z,3.95
2022-11-16T22:51:23.941Z,6.45
2022-11-16T22:53:54.668Z,5.05
2022-11-16T22:56:21.114Z,5.45
2022-11-16T22:58:48.698Z,5.35
2022-11-16T23:01:15.293Z,3.83
2022-11-16T23:03:41.904Z,5.03
2022-11-16T23:06:10.300Z,4.80
2022-11-16T23:08:36.915Z,6.15
2022-11-16T23:11:25.807Z,4.93
2022-11-16T23:14:12.518Z,6.07
2022-11-16T23:16:39.887Z,3.78
2022-11-16T23:19:26.283Z,5.03
2022-11-16T23:22:11.282Z,4.47
2022-11-16T23:24:56.126Z,4.18
2022-11-16T23:27:31.763Z,5.43
2022-11-16T23:30:01.106Z,5.57
2022-11-16T23:32:28.783Z,4.88
2022-11-16T23:34:55.158Z,5.88
2022-11-16T23:37:21.965Z,4.85
2022-11-16T23:39:48.449Z,4.43
2022-11-16T23:42:40.971Z,6.47
2022-11-16T23:45:07.621Z,6.13
2022-11-16T23:47:33.956Z,10.73
2022-11-16T23:50:00.384Z,5.82
2022-11-16T23:52:26.816Z,4.85
2022-11-16T23:54:53.535Z,5.22
2022-11-16T23:57:20.184Z,5.93
2022-11-16T23:59:46.567Z,5.10
